createdAt,value
2023-05-07T00:00:45.747Z,13.13
2023-05-07T00:03:11.877Z,14.25
2023-05-07T00:05:38.249Z,13.18
2023-05-07T00:08:04.146Z,15.60
2023-05-07T00:10:29.871Z,12.20
2023-05-07T00:12:55.783Z,19.17
2023-05-07T00:15:21.691Z,16.77
2023-05-07T00:17:47.441Z,12.52
2023-05-07T00:20:13.502Z,12.60
2023-05-07T00:22:39.467Z,11.70
2023-05-07T00:25:05.780Z,14.13
2023-05-07T00:27:31.697Z,17.08
2023-05-07T00:29:57.454Z,11.52
2023-05-07T00:32:23.220Z,11.30
2023-05-07T00:34:49.633Z,12.48
2023-05-07T00:37:15.378Z,9.70
2023-05-07T00:39:41.101Z,11.00
2023-05-07T00:42:06.828Z,15.70
2023-05-07T00:44:32.576Z,11.88
2023-05-07T00:46:58.356Z,9.52
2023-05-07T00:49:33.530Z,14.02
2023-05-07T00:52:00.977Z,13.35
2023-05-07T00:54:26.709Z,9.35
2023-05-07T00:56:54.705Z,10.73
2023-05-07T00:59:20.480Z,15.25
2023-05-07T01:01:46.461Z,14.02
2023-05-07T01:04:12.258Z,9.38
2023-05-07T01:06:38.863Z,11.27
2023-05-07T01:09:05.303Z,10.70
2023-05-07T01:11:31.323Z,11.73
2023-05-07T01:13:57.884Z,13.00
2023-05-07T01:16:23.678Z,11.48
2023-05-07T01:18:49.733Z,11.10
2023-05-07T01:21:16.923Z,12.77
2023-05-07T01:23:42.761Z,10.57
2023-05-07T01:26:08.521Z,10.82
2023-05-07T01:28:34.282Z,8.02
2023-05-07T01:31:02.465Z,10.07
2023-05-07T01:33:29.921Z,8.57
2023-05-07T01:35:55.902Z,10.45
2023-05-07T01:38:22.431Z,12.07
2023-05-07T01:40:48.201Z,15.82
2023-05-07T01:43:14.133Z,17.55
2023-05-07T01:45:40.605Z,11.43
2023-05-07T01:48:06.898Z,12.07
2023-05-07T01:50:33.055Z,12.70
2023-05-07T01:52:58.796Z,9.55
2023-05-07T01:55:24.530Z,8.48
2023-05-07T01:57:50.277Z,10.18
2023-05-07T02:00:16.176Z,10.27
2023-05-07T02:02:42.005Z,11.88
2023-05-07T02:05:08.141Z,8.93
2023-05-07T02:07:33.871Z,10.80
2023-05-07T02:09:59.673Z,12.25
2023-05-07T02:12:25.414Z,7.88
2023-05-07T02:14:51.179Z,8.90
2023-05-07T02:17:16.915Z,8.23
2023-05-07T02:19:42.697Z,10.73
2023-05-07T02:22:09.833Z,8.05
2023-05-07T02:24:35.823Z,7.28
2023-05-07T02:27:02.601Z,9.88
2023-05-07T02:29:28.324Z,9.52
2023-05-07T02:31:54.142Z,15.40
2023-05-07T02:34:20.057Z,9.75
2023-05-07T02:36:46.187Z,9.52
2023-05-07T02:39:12.604Z,9.20
2023-05-07T02:41:38.615Z,9.95
2023-05-07T02:44:04.498Z,10.43
2023-05-07T02:46:30.517Z,7.93
2023-05-07T02:48:56.380Z,7.03
2023-05-07T02:51:24.142Z,11.40
2023-05-07T02:53:51.780Z,10.23
2023-05-07T02:56:17.526Z,8.48
2023-05-07T02:58:43.304Z,8.75
2023-05-07T03:01:09.301Z,8.25
2023-05-07T03:03:35.313Z,10.45
2023-05-07T03:06:01.067Z,7.93
2023-05-07T03:08:26.938Z,8.10
2023-05-07T03:10:52.717Z,7.82
2023-05-07T03:13:18.573Z,7.55
2023-05-07T03:15:44.500Z,9.90
2023-05-07T03:18:10.892Z,11.88
2023-05-07T03:20:36.937Z,8.40
2023-05-07T03:23:02.880Z,7.28
2023-05-07T03:25:30.430Z,7.80
2023-05-07T03:27:56.512Z,8.32
2023-05-07T03:30:22.451Z,10.25
2023-05-07T03:32:48.281Z,9.38
2023-05-07T03:35:14.296Z,10.57
2023-05-07T03:37:40.447Z,10.05
2023-05-07T03:40:06.447Z,10.63
2023-05-07T03:42:32.246Z,10.75
2023-05-07T03:44:57.959Z,9.57
2023-05-07T03:47:23.717Z,9.77
2023-05-07T03:49:50.676Z,10.48
2023-05-07T03:52:16.587Z,7.72
2023-05-07T03:54:42.311Z,11.23
2023-05-07T03:57:08.076Z,9.85
2023-05-07T03:59:33.864Z,10.13
2023-05-07T04:02:01.328Z,10.40
2023-05-07T04:04:33.249Z,8.70
2023-05-07T04:06:59.994Z,9.48
2023-05-07T04:09:26.186Z,8.70
2023-05-07T04:11:52.039Z,10.25
2023-05-07T04:14:17.973Z,8.50
2023-05-07T04:16:43.822Z,9.10
2023-05-07T04:19:09.991Z,8.65
2023-05-07T04:21:36.159Z,8.68
2023-05-07T04:24:04.004Z,9.98
2023-05-07T04:26:30.028Z,7.18
2023-05-07T04:28:56.093Z,10.15
2023-05-07T04:31:23.005Z,9.63
2023-05-07T04:33:49.098Z,12.27
2023-05-07T04:36:15.037Z,8.60
2023-05-07T04:38:41.145Z,8.27
2023-05-07T04:41:07.319Z,9.80
2023-05-07T04:43:33.730Z,8.07
2023-05-07T04:46:00.051Z,11.25
2023-05-07T04:48:26.832Z,10.88
2023-05-07T04:50:52.895Z,9.18
2023-05-07T04:53:19.103Z,11.48
2023-05-07T04:55:45.841Z,8.00
2023-05-07T04:58:12.552Z,9.13
2023-05-07T05:00:39.712Z,7.82
2023-05-07T05:03:07.563Z,11.73
2023-05-07T05:05:33.876Z,7.63
2023-05-07T05:07:59.734Z,8.48
2023-05-07T05:10:25.842Z,8.07
2023-05-07T05:12:52.007Z,8.00
2023-05-07T05:15:18.135Z,7.95
2023-05-07T05:17:44.682Z,9.40
2023-05-07T05:20:12.256Z,9.60
2023-05-07T05:22:38.612Z,7.75
2023-05-07T05:25:04.757Z,8.98
2023-05-07T05:27:31.010Z,10.13
2023-05-07T05:30:34.683Z,8.38
2023-05-07T05:33:02.350Z,5.97
2023-05-07T05:35:28.259Z,7.20
2023-05-07T05:37:54.318Z,7.80
2023-05-07T05:40:20.926Z,8.75
2023-05-07T05:42:47.540Z,7.18
2023-05-07T05:45:13.875Z,6.78
2023-05-07T05:47:40.121Z,7.35
2023-05-07T05:50:06.873Z,5.97
2023-05-07T05:52:32.865Z,8.85
2023-05-07T05:54:58.764Z,7.28
2023-05-07T05:57:26.573Z,6.30
2023-05-07T05:59:56.230Z,8.85
2023-05-07T06:02:22.376Z,9.95
2023-05-07T06:04:48.411Z,8.48
2023-05-07T06:07:14.511Z,7.07
2023-05-07T06:09:40.352Z,11.57
2023-05-07T06:12:06.319Z,6.35
2023-05-07T06:14:32.520Z,6.50
2023-05-07T06:16:58.626Z,7.20
2023-05-07T06:19:24.989Z,7.85
2023-05-07T06:21:51.866Z,6.00
2023-05-07T06:24:18.076Z,5.25
2023-05-07T06:26:44.721Z,6.40
2023-05-07T06:29:24.102Z,5.40
2023-05-07T06:31:57.452Z,5.47
2023-05-07T06:34:23.670Z,5.05
2023-05-07T06:36:50.238Z,7.28
2023-05-07T06:39:16.396Z,5.78
2023-05-07T06:41:42.799Z,6.45
2023-05-07T06:44:10.050Z,5.93
2023-05-07T06:46:36.463Z,5.90
2023-05-07T06:49:03.910Z,5.45
2023-05-07T06:51:32.212Z,6.75
2023-05-07T06:54:00.233Z,3.97
2023-05-07T06:56:52.238Z,6.60
2023-05-07T06:59:28.482Z,6.70
2023-05-07T07:01:58.935Z,4.95
2023-05-07T07:06:55.530Z,6.82
2023-05-07T07:09:24.019Z,6.65
2023-05-07T07:11:50.529Z,4.88
2023-05-07T07:17:02.567Z,6.28
2023-05-07T07:19:30.340Z,5.00
2023-05-07T07:21:56.827Z,4.80
2023-05-07T07:24:22.895Z,6.68
2023-05-07T07:26:50.563Z,5.32
2023-05-07T07:29:23.495Z,5.20
2023-05-07T07:31:51.374Z,6.55
2023-05-07T07:34:17.545Z,5.20
2023-05-07T07:36:46.686Z,6.38
2023-05-07T07:39:15.168Z,4.07
2023-05-07T07:41:42.304Z,7.93
2023-05-07T07:44:12.216Z,6.05
2023-05-07T07:46:40.529Z,5.57
2023-05-07T07:49:20.000Z,6.30
2023-05-07T07:51:46.669Z,4.75
2023-05-07T07:54:13.884Z,5.60
2023-05-07T07:56:40.272Z,4.38
2023-05-07T07:59:21.142Z,5.10
2023-05-07T08:01:51.795Z,5.63
2023-05-07T08:04:19.732Z,7.03
2023-05-07T08:09:28.307Z,5.53
2023-05-07T08:11:55.287Z,4.38
2023-05-07T08:14:22.168Z,4.40
2023-05-07T08:16:48.661Z,5.05
2023-05-07T08:19:15.123Z,4.93
2023-05-07T08:21:41.405Z,4.30
2023-05-07T08:24:08.797Z,5.07
2023-05-07T08:26:37.520Z,5.35
2023-05-07T08:29:13.448Z,5.65
2023-05-07T08:34:22.403Z,5.55
2023-05-07T08:36:53.085Z,4.90
2023-05-07T08:39:20.029Z,4.85
2023-05-07T08:41:48.716Z,3.67
2023-05-07T08:44:17.827Z,3.83
2023-05-07T08:46:47.562Z,5.50
2023-05-07T08:49:14.731Z,5.07
2023-05-07T08:51:44.432Z,4.03
2023-05-07T08:54:12.071Z,3.93
2023-05-07T08:56:38.021Z,4.97
2023-05-07T09:02:26.477Z,2.65
2023-05-07T09:04:56.452Z,3.33
2023-05-07T09:07:23.538Z,3.17
2023-05-07T09:09:53.202Z,4.18
2023-05-07T09:12:21.597Z,2.45
2023-05-07T09:14:49.724Z,5.88
2023-05-07T09:17:19.937Z,3.42
2023-05-07T09:19:46.389Z,3.03
2023-05-07T09:22:17.124Z,3.25
2023-05-07T09:24:50.905Z,3.38
2023-05-07T09:27:20.583Z,6.53
2023-05-07T09:29:59.180Z,5.50
2023-05-07T09:32:28.082Z,3.70
2023-05-07T09:34:55.189Z,4.13
2023-05-07T09:37:21.951Z,3.45
2023-05-07T09:39:54.277Z,3.03
2023-05-07T09:42:30.303Z,3.28
2023-05-07T09:47:41.701Z,3.92
2023-05-07T09:50:10.004Z,4.20
2023-05-07T09:52:40.891Z,2.53
2023-05-07T10:03:59.185Z,2.25
2023-05-07T10:09:08.451Z,4.82
2023-05-07T10:11:39.867Z,3.08
2023-05-07T10:14:08.409Z,3.25
2023-05-07T10:16:38.045Z,2.42
2023-05-07T10:19:06.771Z,3.00
2023-05-07T10:21:40.955Z,2.30
2023-05-07T10:24:23.036Z,3.22
2023-05-07T10:27:00.470Z,2.95
2023-05-07T10:29:40.583Z,2.83
2023-05-07T10:32:15.401Z,2.95
2023-05-07T10:34:46.643Z,2.70
2023-05-07T10:39:56.013Z,3.50
2023-05-07T10:42:22.864Z,2.75
2023-05-07T10:44:49.185Z,2.30
2023-05-07T10:47:17.902Z,2.95
2023-05-07T10:49:51.902Z,2.33
2023-05-07T10:52:20.014Z,3.78
2023-05-07T10:54:47.648Z,4.90
2023-05-07T10:57:32.173Z,4.85
2023-05-07T11:00:38.936Z,4.50
2023-05-07T11:03:09.256Z,3.08
2023-05-07T11:05:38.638Z,2.22
2023-05-07T11:08:09.935Z,3.40
2023-05-07T11:10:55.958Z,1.92
2023-05-07T11:16:29.832Z,3.95
2023-05-07T11:18:57.243Z,2.90
2023-05-07T11:21:40.874Z,3.13
2023-05-07T11:24:11.438Z,2.58
2023-05-07T11:26:46.763Z,5.72
2023-05-07T11:32:36.707Z,3.15
2023-05-07T11:35:08.743Z,1.67
2023-05-07T11:37:36.181Z,2.50
2023-05-07T11:45:27.147Z,3.72
2023-05-07T11:47:53.851Z,2.25
2023-05-07T11:53:14.386Z,2.42
2023-05-07T11:55:40.925Z,3.88
2023-05-07T11:58:11.402Z,2.50
2023-05-07T12:00:37.616Z,2.47
2023-05-07T12:03:05.607Z,2.67
2023-05-07T12:05:36.245Z,4.55
2023-05-07T12:10:30.783Z,2.58
2023-05-07T12:12:57.493Z,3.67
2023-05-07T12:15:25.668Z,3.08
2023-05-07T12:17:56.436Z,4.78
2023-05-07T12:20:33.410Z,2.40
2023-05-07T12:23:02.235Z,3.40
2023-05-07T12:25:31.560Z,2.67
2023-05-07T12:28:04.148Z,3.45
2023-05-07T12:30:31.484Z,2.05
2023-05-07T12:32:58.988Z,2.40
2023-05-07T12:35:30.477Z,3.50
2023-05-07T12:38:02.512Z,4.32
2023-05-07T12:40:44.021Z,1.80
2023-05-07T12:46:10.652Z,2.40
2023-05-07T12:51:07.579Z,2.47
2023-05-07T12:53:38.010Z,3.88
2023-05-07T12:56:06.690Z,3.85
2023-05-07T13:02:07.649Z,2.65
2023-05-07T13:04:34.566Z,3.53
2023-05-07T13:07:02.393Z,2.78
2023-05-07T13:09:30.086Z,3.17
2023-05-07T13:12:06.665Z,5.25
2023-05-07T13:14:32.985Z,2.50
2023-05-07T13:16:59.951Z,4.68
2023-05-07T13:19:31.982Z,3.13
2023-05-07T13:21:58.428Z,2.83
2023-05-07T13:24:28.225Z,3.10
2023-05-07T13:26:54.776Z,3.45
2023-05-07T13:29:29.466Z,1.85
2023-05-07T13:31:58.131Z,1.73
2023-05-07T13:34:24.239Z,3.97
2023-05-07T13:36:52.564Z,2.88
2023-05-07T13:39:19.249Z,2.65
2023-05-07T13:41:45.702Z,3.05
2023-05-07T13:44:14.985Z,2.67
2023-05-07T13:49:26.883Z,2.70
2023-05-07T13:51:53.754Z,3.53
2023-05-07T13:54:20.916Z,3.53
2023-05-07T13:56:48.890Z,1.92
2023-05-07T13:59:22.100Z,4.43
2023-05-07T14:01:48.631Z,2.78
2023-05-07T14:04:15.495Z,2.97
2023-05-07T14:09:24.441Z,1.95
2023-05-07T14:14:34.044Z,2.65
2023-05-07T14:17:00.689Z,5.00
2023-05-07T14:24:38.756Z,2.38
2023-05-07T14:27:13.965Z,4.63
2023-05-07T14:30:00.761Z,2.25
2023-05-07T14:32:27.805Z,2.08
2023-05-07T14:37:40.698Z,5.70
2023-05-07T14:40:07.603Z,1.58
2023-05-07T14:42:38.058Z,2.28
2023-05-07T14:45:05.443Z,3.90
2023-05-07T14:47:33.851Z,6.50
2023-05-07T14:50:07.207Z,3.15
2023-05-07T14:52:34.084Z,2.17
2023-05-07T15:03:44.801Z,2.25
2023-05-07T15:06:14.628Z,1.70
2023-05-07T15:08:42.662Z,2.90
2023-05-07T15:13:55.337Z,1.73
2023-05-07T15:16:21.809Z,3.10
2023-05-07T15:21:40.363Z,1.38
2023-05-07T15:24:10.347Z,1.70
2023-05-07T15:31:47.157Z,2.15
2023-05-07T15:34:19.746Z,2.08
2023-05-07T15:39:27.285Z,1.60
2023-05-07T15:44:38.611Z,3.05
2023-05-07T15:52:36.694Z,1.63
2023-05-07T15:55:03.932Z,3.58
2023-05-07T15:57:35.900Z,2.05
2023-05-07T16:03:30.057Z,2.97
2023-05-07T16:05:57.620Z,1.92
2023-05-07T16:08:27.787Z,3.58
2023-05-07T16:13:37.263Z,2.33
2023-05-07T16:16:04.042Z,2.75
2023-05-07T16:18:30.901Z,5.72
2023-05-07T16:20:57.905Z,3.75
2023-05-07T16:23:24.308Z,3.78
2023-05-07T16:25:50.613Z,4.28
2023-05-07T16:31:53.795Z,1.52
2023-05-07T16:34:20.441Z,2.08
2023-05-07T16:36:46.724Z,1.85
2023-05-07T16:39:16.057Z,1.90
2023-05-07T16:41:48.074Z,6.50
2023-05-07T16:44:14.452Z,6.10
2023-05-07T16:46:42.750Z,3.97
2023-05-07T16:49:17.668Z,3.80
2023-05-07T16:51:47.120Z,4.07
2023-05-07T16:54:14.670Z,2.33
2023-05-07T16:56:43.545Z,1.90
2023-05-07T16:59:09.799Z,3.40
2023-05-07T17:01:36.743Z,2.05
2023-05-07T17:04:05.502Z,1.63
2023-05-07T17:06:41.826Z,2.25
2023-05-07T17:09:11.858Z,1.95
2023-05-07T17:11:38.235Z,4.65
2023-05-07T17:14:05.633Z,4.18
2023-05-07T17:16:36.716Z,3.10
2023-05-07T17:19:05.102Z,4.07
2023-05-07T17:21:32.185Z,4.25
2023-05-07T17:24:06.353Z,2.95
2023-05-07T17:26:38.487Z,4.45
2023-05-07T17:32:01.224Z,2.38
2023-05-07T17:34:36.597Z,2.58
2023-05-07T17:37:03.728Z,3.10
2023-05-07T17:39:33.910Z,1.60
2023-05-07T17:44:48.801Z,3.30
2023-05-07T17:47:15.805Z,2.63
2023-05-07T17:49:42.570Z,1.30
2023-05-07T17:52:19.089Z,2.03
2023-05-07T17:54:45.543Z,2.53
2023-05-07T17:57:12.375Z,1.92
2023-05-07T18:22:40.359Z,1.80
2023-05-07T18:25:06.792Z,1.50
2023-05-07T18:27:37.264Z,2.83
2023-05-07T18:30:04.873Z,1.80
2023-05-07T18:32:34.987Z,4.50
2023-05-07T18:35:03.421Z,3.65
2023-05-07T18:37:30.682Z,2.20
2023-05-07T18:39:58.163Z,1.25
2023-05-07T18:42:25.198Z,4.68
2023-05-07T18:45:10.044Z,3.42
2023-05-07T18:47:36.446Z,2.60
2023-05-07T18:50:02.829Z,2.55
2023-05-07T18:52:30.759Z,2.28
2023-05-07T18:54:56.885Z,2.22
2023-05-07T18:57:23.485Z,2.45
2023-05-07T18:59:53.142Z,2.78
2023-05-07T19:02:19.311Z,2.78
2023-05-07T19:04:46.690Z,6.00
2023-05-07T19:07:14.053Z,2.95
2023-05-07T19:09:53.582Z,2.35
2023-05-07T19:12:28.531Z,1.85
2023-05-07T19:18:16.870Z,2.47
2023-05-07T19:20:43.044Z,4.20
2023-05-07T19:23:11.306Z,3.33
2023-05-07T19:25:37.787Z,4.68
2023-05-07T19:28:04.379Z,2.78
2023-05-07T19:30:30.534Z,6.25
2023-05-07T19:32:58.900Z,4.07
2023-05-07T19:35:26.064Z,3.50
2023-05-07T19:37:52.289Z,3.83
2023-05-07T19:40:18.685Z,2.83
2023-05-07T19:42:46.041Z,2.55
2023-05-07T19:45:15.703Z,2.50
2023-05-07T19:47:46.537Z,2.20
2023-05-07T19:50:13.627Z,5.13
2023-05-07T19:52:40.256Z,3.40
2023-05-07T19:55:07.134Z,3.85
2023-05-07T19:57:33.633Z,3.17
2023-05-07T20:00:00.389Z,4.22
2023-05-07T20:02:27.411Z,3.33
2023-05-07T20:04:55.286Z,2.72
2023-05-07T20:07:24.044Z,3.30
2023-05-07T20:09:52.021Z,4.25
2023-05-07T20:12:18.140Z,6.38
2023-05-07T20:15:03.449Z,3.63
2023-05-07T20:17:29.585Z,3.58
2023-05-07T20:19:56.185Z,5.05
2023-05-07T20:22:23.333Z,4.00
2023-05-07T20:24:49.388Z,3.65
2023-05-07T20:27:21.820Z,3.17
2023-05-07T20:29:49.365Z,3.35
2023-05-07T20:32:15.546Z,3.05
2023-05-07T20:34:46.598Z,4.00
2023-05-07T20:37:15.286Z,3.80
2023-05-07T20:39:41.824Z,3.70
2023-05-07T20:42:08.876Z,4.00
2023-05-07T20:45:12.606Z,4.68
2023-05-07T20:47:38.778Z,2.83
2023-05-07T20:50:05.803Z,4.68
2023-05-07T20:52:32.373Z,5.57
2023-05-07T20:54:58.666Z,5.22
2023-05-07T20:57:26.440Z,4.18
2023-05-07T20:59:52.327Z,3.92
2023-05-07T21:02:18.630Z,9.50
2023-05-07T21:04:45.034Z,3.30
2023-05-07T21:07:12.150Z,4.30
2023-05-07T21:09:38.198Z,4.70
2023-05-07T21:12:06.683Z,5.05
2023-05-07T21:14:38.163Z,4.22
2023-05-07T21:17:06.475Z,6.75
2023-05-07T21:19:32.868Z,3.40
2023-05-07T21:21:59.722Z,13.35
2023-05-07T21:24:27.269Z,4.43
2023-05-07T21:26:53.953Z,6.10
2023-05-07T21:29:21.736Z,5.32
2023-05-07T21:31:48.090Z,5.50
2023-05-07T21:34:14.155Z,4.78
2023-05-07T21:36:40.218Z,4.75
2023-05-07T21:39:10.624Z,4.88
2023-05-07T21:41:36.603Z,4.57
2023-05-07T21:44:03.276Z,4.40
2023-05-07T21:46:29.502Z,4.00
2023-05-07T21:48:56.203Z,4.07
2023-05-07T21:51:22.545Z,7.15
2023-05-07T21:53:48.693Z,6.50
2023-05-07T21:56:14.756Z,5.07
2023-05-07T21:58:40.718Z,6.40
2023-05-07T22:01:06.623Z,3.88
2023-05-07T22:03:32.492Z,5.25
2023-05-07T22:05:58.544Z,4.40
2023-05-07T22:08:24.903Z,5.00
2023-05-07T22:10:50.686Z,4.43
2023-05-07T22:13:16.663Z,5.22
2023-05-07T22:15:53.687Z,3.95
2023-05-07T22:18:22.300Z,7.20
2023-05-07T22:20:50.064Z,3.53
2023-05-07T22:23:15.783Z,4.97
2023-05-07T22:25:41.502Z,4.47
2023-05-07T22:28:07.221Z,5.90
2023-05-07T22:30:32.982Z,5.45
2023-05-07T22:32:58.759Z,4.47
2023-05-07T22:35:24.584Z,4.82
2023-05-07T22:37:50.303Z,5.70
2023-05-07T22:40:16.075Z,5.35
2023-05-07T22:42:41.806Z,6.15
2023-05-07T22:45:07.731Z,4.28
2023-05-07T22:47:33.502Z,5.28
2023-05-07T22:49:59.274Z,4.97
2023-05-07T22:52:25.007Z,6.80
2023-05-07T22:54:50.773Z,5.50
2023-05-07T22:57:16.496Z,4.20
2023-05-07T22:59:42.227Z,6.03
2023-05-07T23:02:07.988Z,6.18
2023-05-07T23:04:33.752Z,5.93
2023-05-07T23:06:59.543Z,5.63
2023-05-07T23:09:25.291Z,5.22
2023-05-07T23:11:51.054Z,5.75
2023-05-07T23:14:16.787Z,4.35
2023-05-07T23:16:42.579Z,4.55
2023-05-07T23:19:08.355Z,6.63
2023-05-07T23:21:34.081Z,5.70
2023-05-07T23:23:59.968Z,5.65
2023-05-07T23:26:28.707Z,4.63
2023-05-07T23:28:54.412Z,6.28
2023-05-07T23:31:20.401Z,4.47
2023-05-07T23:33:46.219Z,4.05
2023-05-07T23:36:11.968Z,6.32
2023-05-07T23:38:37.675Z,6.38
2023-05-07T23:41:03.438Z,5.57
2023-05-07T23:43:29.160Z,4.55
2023-05-07T23:45:55.848Z,5.75
2023-05-07T23:48:21.601Z,6.85
2023-05-07T23:50:47.613Z,6.22
2023-05-07T23:53:13.952Z,4.55
2023-05-07T23:55:39.675Z,5.38
2023-05-07T23:58:05.545Z,6.25
